sensor_id;sensor_type;location;lat;lon;timestamp;temperature;humidity
28460;DHT22;32528;45.712;9.192;2023-04-21T00:00:02;10.30;99.90
28460;DHT22;32528;45.712;9.192;2023-04-21T00:02:07;10.30;99.90
28460;DHT22;32528;45.712;9.192;2023-04-21T00:04:08;10.40;99.90
28460;DHT22;32528;45.712;9.192;2023-04-21T00:06:09;10.50;99.90
28460;DHT22;32528;45.712;9.192;2023-04-21T00:08:10;10.50;99.90
28460;DHT22;32528;45.712;9.192;2023-04-21T00:10:11;10.50;99.90
28460;DHT22;32528;45.712;9.192;2023-04-21T00:12:12;10.50;99.90
28460;DHT22;32528;45.712;9.192;2023-04-21T00:14:12;10.50;99.90
28460;DHT22;32528;45.712;9.192;2023-04-21T00:16:13;10.50;99.90
28460;DHT22;32528;45.712;9.192;2023-04-21T00:18:13;10.40;99.90
28460;DHT22;32528;45.712;9.192;2023-04-21T00:20:14;10.30;99.90
28460;DHT22;32528;45.712;9.192;2023-04-21T00:22:15;10.20;99.90
28460;DHT22;32528;45.712;9.192;2023-04-21T00:24:16;10.20;99.90
28460;DHT22;32528;45.712;9.192;2023-04-21T00:26:18;10.10;99.90
28460;DHT22;32528;45.712;9.192;2023-04-21T00:28:22;10.20;99.90
28460;DHT22;32528;45.712;9.192;2023-04-21T00:30:23;10.30;99.90
28460;DHT22;32528;45.712;9.192;2023-04-21T00:32:24;10.30;99.90
28460;DHT22;32528;45.712;9.192;2023-04-21T00:34:24;10.40;99.90
28460;DHT22;32528;45.712;9.192;2023-04-21T00:36:26;10.30;99.90
28460;DHT22;32528;45.712;9.192;2023-04-21T00:38:27;10.40;99.90
28460;DHT22;32528;45.712;9.192;2023-04-21T00:40:28;10.50;99.90
28460;DHT22;32528;45.712;9.192;2023-04-21T00:42:29;10.50;99.90
28460;DHT22;32528;45.712;9.192;2023-04-21T00:44:30;10.40;99.90
28460;DHT22;32528;45.712;9.192;2023-04-21T00:46:32;10.50;99.90
28460;DHT22;32528;45.712;9.192;2023-04-21T00:48:32;10.50;99.90
28460;DHT22;32528;45.712;9.192;2023-04-21T00:50:33;10.50;99.90
28460;DHT22;32528;45.712;9.192;2023-04-21T00:52:34;10.60;99.90
28460;DHT22;32528;45.712;9.192;2023-04-21T00:54:35;10.60;99.90
28460;DHT22;32528;45.712;9.192;2023-04-21T00:56:36;10.70;99.90
28460;DHT22;32528;45.712;9.192;2023-04-21T00:58:37;10.70;99.90
28460;DHT22;32528;45.712;9.192;2023-04-21T01:00:39;10.70;99.90
28460;DHT22;32528;45.712;9.192;2023-04-21T01:02:42;10.70;99.90
28460;DHT22;32528;45.712;9.192;2023-04-21T01:04:44;10.80;99.90
28460;DHT22;32528;45.712;9.192;2023-04-21T01:06:45;10.80;99.90
28460;DHT22;32528;45.712;9.192;2023-04-21T01:08:46;10.80;99.90
28460;DHT22;32528;45.712;9.192;2023-04-21T01:10:49;10.80;99.90
28460;DHT22;32528;45.712;9.192;2023-04-21T01:12:50;10.70;99.90
28460;DHT22;32528;45.712;9.192;2023-04-21T01:14:51;10.70;99.90
28460;DHT22;32528;45.712;9.192;2023-04-21T01:16:51;10.70;99.90
28460;DHT22;32528;45.712;9.192;2023-04-21T01:18:53;10.70;99.90
28460;DHT22;32528;45.712;9.192;2023-04-21T01:20:54;10.60;99.90
28460;DHT22;32528;45.712;9.192;2023-04-21T01:22:55;10.70;99.90
28460;DHT22;32528;45.712;9.192;2023-04-21T01:24:55;10.70;99.90
28460;DHT22;32528;45.712;9.192;2023-04-21T01:26:56;10.70;99.90
28460;DHT22;32528;45.712;9.192;2023-04-21T01:28:57;10.80;99.90
28460;DHT22;32528;45.712;9.192;2023-04-21T01:30:58;10.80;99.90
28460;DHT22;32528;45.712;9.192;2023-04-21T01:32:59;10.80;99.90
28460;DHT22;32528;45.712;9.192;2023-04-21T01:35:00;10.90;99.90
28460;DHT22;32528;45.712;9.192;2023-04-21T01:37:01;10.90;99.90
28460;DHT22;32528;45.712;9.192;2023-04-21T01:39:03;10.90;99.90
28460;DHT22;32528;45.712;9.192;2023-04-21T01:41:04;10.90;99.90
28460;DHT22;32528;45.712;9.192;2023-04-21T01:43:05;11.00;99.90
28460;DHT22;32528;45.712;9.192;2023-04-21T01:45:08;11.00;99.90
28460;DHT22;32528;45.712;9.192;2023-04-21T01:47:10;11.00;99.90
28460;DHT22;32528;45.712;9.192;2023-04-21T01:49:13;11.00;99.90
28460;DHT22;32528;45.712;9.192;2023-04-21T01:51:14;11.00;99.90
28460;DHT22;32528;45.712;9.192;2023-04-21T01:53:15;11.00;99.90
28460;DHT22;32528;45.712;9.192;2023-04-21T01:55:15;11.00;99.90
28460;DHT22;32528;45.712;9.192;2023-04-21T01:57:16;11.00;99.90
28460;DHT22;32528;45.712;9.192;2023-04-21T01:59:17;10.90;99.90
28460;DHT22;32528;45.712;9.192;2023-04-21T02:01:19;11.00;99.90
28460;DHT22;32528;45.712;9.192;2023-04-21T02:03:20;11.00;99.90
28460;DHT22;32528;45.712;9.192;2023-04-21T02:05:21;11.00;99.90
28460;DHT22;32528;45.712;9.192;2023-04-21T02:07:21;11.10;99.90
28460;DHT22;32528;45.712;9.192;2023-04-21T02:09:22;11.10;99.90
28460;DHT22;32528;45.712;9.192;2023-04-21T02:11:26;11.20;99.90
28460;DHT22;32528;45.712;9.192;2023-04-21T02:13:27;11.10;99.90
28460;DHT22;32528;45.712;9.192;2023-04-21T02:15:28;11.10;99.90
28460;DHT22;32528;45.712;9.192;2023-04-21T02:17:28;11.20;99.90
28460;DHT22;32528;45.712;9.192;2023-04-21T02:19:30;11.20;99.90
28460;DHT22;32528;45.712;9.192;2023-04-21T02:21:31;11.20;99.90
28460;DHT22;32528;45.712;9.192;2023-04-21T02:23:32;11.20;99.90
28460;DHT22;32528;45.712;9.192;2023-04-21T02:25:33;11.10;99.90
28460;DHT22;32528;45.712;9.192;2023-04-21T02:27:34;11.00;99.90
28460;DHT22;32528;45.712;9.192;2023-04-21T02:29:35;10.90;99.90
28460;DHT22;32528;45.712;9.192;2023-04-21T02:31:36;10.80;99.90
28460;DHT22;32528;45.712;9.192;2023-04-21T02:33:36;10.80;99.90
28460;DHT22;32528;45.712;9.192;2023-04-21T02:35:39;10.80;99.90
28460;DHT22;32528;45.712;9.192;2023-04-21T02:37:39;10.80;99.90
28460;DHT22;32528;45.712;9.192;2023-04-21T02:39:40;10.80;99.90
28460;DHT22;32528;45.712;9.192;2023-04-21T02:41:43;10.90;99.90
28460;DHT22;32528;45.712;9.192;2023-04-21T02:43:43;10.80;99.90
28460;DHT22;32528;45.712;9.192;2023-04-21T02:45:44;10.70;99.90
28460;DHT22;32528;45.712;9.192;2023-04-21T02:47:46;10.80;99.90
28460;DHT22;32528;45.712;9.192;2023-04-21T02:49:47;10.90;99.90
28460;DHT22;32528;45.712;9.192;2023-04-21T02:51:47;10.90;99.90
28460;DHT22;32528;45.712;9.192;2023-04-21T02:53:48;11.00;99.90
28460;DHT22;32528;45.712;9.192;2023-04-21T02:55:49;10.90;99.90
28460;DHT22;32528;45.712;9.192;2023-04-21T02:57:50;11.00;99.90
28460;DHT22;32528;45.712;9.192;2023-04-21T02:59:50;10.90;99.90
28460;DHT22;32528;45.712;9.192;2023-04-21T03:01:51;10.90;99.90
28460;DHT22;32528;45.712;9.192;2023-04-21T03:03:52;10.80;99.90
28460;DHT22;32528;45.712;9.192;2023-04-21T03:06:00;10.80;99.90
28460;DHT22;32528;45.712;9.192;2023-04-21T03:08:01;10.90;99.90
28460;DHT22;32528;45.712;9.192;2023-04-21T03:10:01;10.90;99.90
28460;DHT22;32528;45.712;9.192;2023-04-21T03:12:02;10.90;99.90
28460;DHT22;32528;45.712;9.192;2023-04-21T03:14:03;11.00;99.90
28460;DHT22;32528;45.712;9.192;2023-04-21T03:16:04;11.00;99.90
28460;DHT22;32528;45.712;9.192;2023-04-21T03:18:05;11.00;99.90
28460;DHT22;32528;45.712;9.192;2023-04-21T03:20:07;11.00;99.90
28460;DHT22;32528;45.712;9.192;2023-04-21T03:22:08;10.80;99.90
28460;DHT22;32528;45.712;9.192;2023-04-21T03:24:09;10.80;99.90
28460;DHT22;32528;45.712;9.192;2023-04-21T03:26:10;10.80;99.90
28460;DHT22;32528;45.712;9.192;2023-04-21T03:28:11;10.80;99.90
28460;DHT22;32528;45.712;9.192;2023-04-21T03:30:13;10.90;99.90
28460;DHT22;32528;45.712;9.192;2023-04-21T03:32:15;10.80;99.90
28460;DHT22;32528;45.712;9.192;2023-04-21T03:34:16;10.70;99.90
28460;DHT22;32528;45.712;9.192;2023-04-21T03:36:17;10.60;99.90
28460;DHT22;32528;45.712;9.192;2023-04-21T03:38:17;10.60;99.90
28460;DHT22;32528;45.712;9.192;2023-04-21T03:40:19;10.60;99.90
28460;DHT22;32528;45.712;9.192;2023-04-21T03:42:22;10.60;99.90
28460;DHT22;32528;45.712;9.192;2023-04-21T03:44:26;10.60;99.90
28460;DHT22;32528;45.712;9.192;2023-04-21T03:46:28;10.70;99.90
28460;DHT22;32528;45.712;9.192;2023-04-21T03:48:28;10.70;99.90
28460;DHT22;32528;45.712;9.192;2023-04-21T03:50:29;10.70;99.90
28460;DHT22;32528;45.712;9.192;2023-04-21T03:52:30;10.80;99.90
28460;DHT22;32528;45.712;9.192;2023-04-21T03:54:31;10.80;99.90
28460;DHT22;32528;45.712;9.192;2023-04-21T03:56:36;10.70;99.90
28460;DHT22;32528;45.712;9.192;2023-04-21T03:58:36;10.70;99.90
28460;DHT22;32528;45.712;9.192;2023-04-21T04:00:37;10.60;99.90
28460;DHT22;32528;45.712;9.192;2023-04-21T04:02:38;10.60;99.90
28460;DHT22;32528;45.712;9.192;2023-04-21T04:04:39;10.70;99.90
28460;DHT22;32528;45.712;9.192;2023-04-21T04:06:40;10.60;99.90
28460;DHT22;32528;45.712;9.192;2023-04-21T04:08:41;10.70;99.90
28460;DHT22;32528;45.712;9.192;2023-04-21T04:10:41;10.70;99.90
28460;DHT22;32528;45.712;9.192;2023-04-21T04:12:42;10.60;99.90
28460;DHT22;32528;45.712;9.192;2023-04-21T04:14:43;10.60;99.90
28460;DHT22;32528;45.712;9.192;2023-04-21T04:16:44;10.60;99.90
28460;DHT22;32528;45.712;9.192;2023-04-21T04:18:44;10.60;99.90
28460;DHT22;32528;45.712;9.192;2023-04-21T04:20:45;10.60;99.90
28460;DHT22;32528;45.712;9.192;2023-04-21T04:22:46;10.50;99.90
28460;DHT22;32528;45.712;9.192;2023-04-21T04:24:46;10.50;99.90
28460;DHT22;32528;45.712;9.192;2023-04-21T04:26:48;10.60;99.90
28460;DHT22;32528;45.712;9.192;2023-04-21T04:28:49;10.60;99.90
28460;DHT22;32528;45.712;9.192;2023-04-21T04:30:50;10.60;99.90
28460;DHT22;32528;45.712;9.192;2023-04-21T04:32:51;10.70;99.90
28460;DHT22;32528;45.712;9.192;2023-04-21T04:34:52;10.70;99.90
28460;DHT22;32528;45.712;9.192;2023-04-21T04:36:56;10.70;99.90
28460;DHT22;32528;45.712;9.192;2023-04-21T04:38:58;10.60;99.90
28460;DHT22;32528;45.712;9.192;2023-04-21T04:40:58;10.60;99.90
28460;DHT22;32528;45.712;9.192;2023-04-21T04:43:01;10.50;99.90
28460;DHT22;32528;45.712;9.192;2023-04-21T04:45:04;10.50;99.90
28460;DHT22;32528;45.712;9.192;2023-04-21T04:47:05;10.40;99.90
28460;DHT22;32528;45.712;9.192;2023-04-21T04:49:07;10.40;99.90
28460;DHT22;32528;45.712;9.192;2023-04-21T04:51:08;10.40;99.90
28460;DHT22;32528;45.712;9.192;2023-04-21T04:53:08;10.40;99.90
28460;DHT22;32528;45.712;9.192;2023-04-21T04:55:09;10.40;99.90
28460;DHT22;32528;45.712;9.192;2023-04-21T04:57:10;10.30;99.90
28460;DHT22;32528;45.712;9.192;2023-04-21T04:59:11;10.20;99.90
28460;DHT22;32528;45.712;9.192;2023-04-21T05:01:18;10.20;99.90
28460;DHT22;32528;45.712;9.192;2023-04-21T05:03:18;10.10;99.90
28460;DHT22;32528;45.712;9.192;2023-04-21T05:05:19;10.20;99.90
28460;DHT22;32528;45.712;9.192;2023-04-21T05:07:21;10.20;99.90
28460;DHT22;32528;45.712;9.192;2023-04-21T05:09:22;10.30;99.90
28460;DHT22;32528;45.712;9.192;2023-04-21T05:11:23;10.40;99.90
28460;DHT22;32528;45.712;9.192;2023-04-21T05:13:24;10.50;99.90
28460;DHT22;32528;45.712;9.192;2023-04-21T05:15:25;10.50;99.90
28460;DHT22;32528;45.712;9.192;2023-04-21T05:17:25;10.60;99.90
28460;DHT22;32528;45.712;9.192;2023-04-21T05:19:27;10.50;99.90
28460;DHT22;32528;45.712;9.192;2023-04-21T05:21:28;10.40;99.90
28460;DHT22;32528;45.712;9.192;2023-04-21T05:23:29;10.40;99.90
28460;DHT22;32528;45.712;9.192;2023-04-21T05:25:30;10.40;99.90
28460;DHT22;32528;45.712;9.192;2023-04-21T05:27:30;10.40;99.90
28460;DHT22;32528;45.712;9.192;2023-04-21T05:29:31;10.50;99.90
28460;DHT22;32528;45.712;9.192;2023-04-21T05:31:33;10.40;99.90
28460;DHT22;32528;45.712;9.192;2023-04-21T05:33:34;10.50;99.90
28460;DHT22;32528;45.712;9.192;2023-04-21T05:35:34;10.50;99.90
28460;DHT22;32528;45.712;9.192;2023-04-21T05:37:35;10.60;99.90
28460;DHT22;32528;45.712;9.192;2023-04-21T05:39:36;10.60;99.90
28460;DHT22;32528;45.712;9.192;2023-04-21T05:41:36;10.50;99.90
28460;DHT22;32528;45.712;9.192;2023-04-21T05:43:37;10.50;99.90
28460;DHT22;32528;45.712;9.192;2023-04-21T05:45:38;10.50;99.90
28460;DHT22;32528;45.712;9.192;2023-04-21T05:47:39;10.40;99.90
28460;DHT22;32528;45.712;9.192;2023-04-21T05:49:40;10.30;99.90
28460;DHT22;32528;45.712;9.192;2023-04-21T05:51:41;10.40;99.90
28460;DHT22;32528;45.712;9.192;2023-04-21T05:53:42;10.40;99.90
28460;DHT22;32528;45.712;9.192;2023-04-21T05:55:43;10.40;99.90
28460;DHT22;32528;45.712;9.192;2023-04-21T05:57:44;10.50;99.90
28460;DHT22;32528;45.712;9.192;2023-04-21T05:59:45;10.50;99.90
28460;DHT22;32528;45.712;9.192;2023-04-21T06:01:45;10.40;99.90
28460;DHT22;32528;45.712;9.192;2023-04-21T06:03:46;10.50;99.90
28460;DHT22;32528;45.712;9.192;2023-04-21T06:05:56;10.40;99.90
28460;DHT22;32528;45.712;9.192;2023-04-21T06:07:56;10.40;99.90
28460;DHT22;32528;45.712;9.192;2023-04-21T06:09:57;10.40;99.90
28460;DHT22;32528;45.712;9.192;2023-04-21T06:11:58;10.40;99.90
28460;DHT22;32528;45.712;9.192;2023-04-21T06:14:00;10.30;99.90
28460;DHT22;32528;45.712;9.192;2023-04-21T06:16:01;10.30;99.90
28460;DHT22;32528;45.712;9.192;2023-04-21T06:18:02;10.30;99.90
28460;DHT22;32528;45.712;9.192;2023-04-21T06:20:03;10.40;99.90
28460;DHT22;32528;45.712;9.192;2023-04-21T06:22:04;10.40;99.90
28460;DHT22;32528;45.712;9.192;2023-04-21T06:24:05;10.40;99.90
28460;DHT22;32528;45.712;9.192;2023-04-21T06:26:07;10.50;99.90
28460;DHT22;32528;45.712;9.192;2023-04-21T06:28:08;10.50;99.90
28460;DHT22;32528;45.712;9.192;2023-04-21T06:30:09;10.50;99.90
28460;DHT22;32528;45.712;9.192;2023-04-21T06:32:10;10.50;99.90
28460;DHT22;32528;45.712;9.192;2023-04-21T06:34:11;10.60;99.90
28460;DHT22;32528;45.712;9.192;2023-04-21T06:36:11;10.60;99.90
28460;DHT22;32528;45.712;9.192;2023-04-21T06:38:12;10.70;99.90
28460;DHT22;32528;45.712;9.192;2023-04-21T06:40:13;10.80;99.90
28460;DHT22;32528;45.712;9.192;2023-04-21T06:42:16;10.80;99.90
28460;DHT22;32528;45.712;9.192;2023-04-21T06:44:17;10.90;99.90
28460;DHT22;32528;45.712;9.192;2023-04-21T06:46:18;11.00;99.90
28460;DHT22;32528;45.712;9.192;2023-04-21T06:48:18;10.90;99.90
28460;DHT22;32528;45.712;9.192;2023-04-21T06:50:19;11.00;99.90
28460;DHT22;32528;45.712;9.192;2023-04-21T06:52:19;11.00;99.90
28460;DHT22;32528;45.712;9.192;2023-04-21T06:54:20;11.00;99.90
28460;DHT22;32528;45.712;9.192;2023-04-21T06:56:21;11.10;99.90
28460;DHT22;32528;45.712;9.192;2023-04-21T06:58:22;11.10;99.90
28460;DHT22;32528;45.712;9.192;2023-04-21T07:00:23;11.20;99.90
28460;DHT22;32528;45.712;9.192;2023-04-21T07:02:23;11.30;99.90
28460;DHT22;32528;45.712;9.192;2023-04-21T07:04:24;11.30;99.90
28460;DHT22;32528;45.712;9.192;2023-04-21T07:06:29;11.30;99.90
28460;DHT22;32528;45.712;9.192;2023-04-21T07:08:31;11.30;99.90
28460;DHT22;32528;45.712;9.192;2023-04-21T07:10:31;11.30;99.90
28460;DHT22;32528;45.712;9.192;2023-04-21T07:12:32;11.20;99.90
28460;DHT22;32528;45.712;9.192;2023-04-21T07:14:33;11.30;99.90
28460;DHT22;32528;45.712;9.192;2023-04-21T07:16:33;11.30;99.90
28460;DHT22;32528;45.712;9.192;2023-04-21T07:18:34;11.30;99.90
28460;DHT22;32528;45.712;9.192;2023-04-21T07:20:34;11.40;99.90
28460;DHT22;32528;45.712;9.192;2023-04-21T07:22:35;11.30;99.90
28460;DHT22;32528;45.712;9.192;2023-04-21T07:24:36;11.30;99.90
28460;DHT22;32528;45.712;9.192;2023-04-21T07:26:37;11.30;99.90
28460;DHT22;32528;45.712;9.192;2023-04-21T07:28:37;11.30;99.90
28460;DHT22;32528;45.712;9.192;2023-04-21T07:30:40;11.30;99.90
28460;DHT22;32528;45.712;9.192;2023-04-21T07:32:40;11.30;99.90
28460;DHT22;32528;45.712;9.192;2023-04-21T07:34:42;11.30;99.90
28460;DHT22;32528;45.712;9.192;2023-04-21T07:36:46;11.30;99.90
28460;DHT22;32528;45.712;9.192;2023-04-21T07:38:46;11.40;99.90
28460;DHT22;32528;45.712;9.192;2023-04-21T07:40:47;11.50;99.90
28460;DHT22;32528;45.712;9.192;2023-04-21T07:42:48;11.50;99.90
28460;DHT22;32528;45.712;9.192;2023-04-21T07:44:48;11.50;99.90
28460;DHT22;32528;45.712;9.192;2023-04-21T07:46:49;11.60;99.90
28460;DHT22;32528;45.712;9.192;2023-04-21T07:48:50;11.60;99.90
28460;DHT22;32528;45.712;9.192;2023-04-21T07:50:50;11.70;99.90
28460;DHT22;32528;45.712;9.192;2023-04-21T07:52:52;11.70;99.90
28460;DHT22;32528;45.712;9.192;2023-04-21T07:54:54;11.80;99.90
28460;DHT22;32528;45.712;9.192;2023-04-21T07:56:55;11.90;99.90
28460;DHT22;32528;45.712;9.192;2023-04-21T07:58:55;12.00;99.90
28460;DHT22;32528;45.712;9.192;2023-04-21T08:00:56;12.10;99.90
28460;DHT22;32528;45.712;9.192;2023-04-21T08:02:57;12.30;99.90
28460;DHT22;32528;45.712;9.192;2023-04-21T08:04:57;12.40;99.90
28460;DHT22;32528;45.712;9.192;2023-04-21T08:06:58;12.50;99.90
28460;DHT22;32528;45.712;9.192;2023-04-21T08:08:59;12.60;99.90
28460;DHT22;32528;45.712;9.192;2023-04-21T08:11:00;12.70;99.90
28460;DHT22;32528;45.712;9.192;2023-04-21T08:13:00;12.80;99.90
28460;DHT22;32528;45.712;9.192;2023-04-21T08:15:03;12.80;99.90
28460;DHT22;32528;45.712;9.192;2023-04-21T08:17:07;12.80;99.90
28460;DHT22;32528;45.712;9.192;2023-04-21T08:19:08;12.80;99.90
28460;DHT22;32528;45.712;9.192;2023-04-21T08:21:10;12.80;99.90
28460;DHT22;32528;45.712;9.192;2023-04-21T08:23:11;12.80;99.90
28460;DHT22;32528;45.712;9.192;2023-04-21T08:25:12;12.80;99.90
28460;DHT22;32528;45.712;9.192;2023-04-21T08:27:12;12.70;99.90
28460;DHT22;32528;45.712;9.192;2023-04-21T08:29:13;12.80;99.90
28460;DHT22;32528;45.712;9.192;2023-04-21T08:31:14;12.70;99.90
28460;DHT22;32528;45.712;9.192;2023-04-21T08:33:15;12.80;99.90
28460;DHT22;32528;45.712;9.192;2023-04-21T08:35:16;12.80;99.90
28460;DHT22;32528;45.712;9.192;2023-04-21T08:37:17;12.80;99.90
28460;DHT22;32528;45.712;9.192;2023-04-21T08:39:21;12.90;99.90
28460;DHT22;32528;45.712;9.192;2023-04-21T08:41:21;12.90;99.90
28460;DHT22;32528;45.712;9.192;2023-04-21T08:43:22;12.90;99.90
28460;DHT22;32528;45.712;9.192;2023-04-21T08:45:23;13.00;99.90
28460;DHT22;32528;45.712;9.192;2023-04-21T08:47:23;13.00;99.90
28460;DHT22;32528;45.712;9.192;2023-04-21T08:49:28;13.10;99.90
28460;DHT22;32528;45.712;9.192;2023-04-21T08:51:30;13.20;99.90
28460;DHT22;32528;45.712;9.192;2023-04-21T08:53:31;13.20;99.90
28460;DHT22;32528;45.712;9.192;2023-04-21T08:55:32;13.30;99.90
28460;DHT22;32528;45.712;9.192;2023-04-21T08:57:33;13.40;99.90
28460;DHT22;32528;45.712;9.192;2023-04-21T08:59:35;13.50;99.90
28460;DHT22;32528;45.712;9.192;2023-04-21T09:04:16;13.70;99.90
28460;DHT22;32528;45.712;9.192;2023-04-21T09:06:17;13.80;99.90
28460;DHT22;32528;45.712;9.192;2023-04-21T09:08:18;13.80;99.90
28460;DHT22;32528;45.712;9.192;2023-04-21T09:10:22;14.00;99.90
28460;DHT22;32528;45.712;9.192;2023-04-21T09:12:26;14.20;99.90
28460;DHT22;32528;45.712;9.192;2023-04-21T09:14:33;14.30;99.90
28460;DHT22;32528;45.712;9.192;2023-04-21T09:16:34;14.30;99.90
28460;DHT22;32528;45.712;9.192;2023-04-21T09:18:36;14.30;99.90
28460;DHT22;32528;45.712;9.192;2023-04-21T09:20:40;14.20;99.90
28460;DHT22;32528;45.712;9.192;2023-04-21T09:22:41;14.30;99.90
28460;DHT22;32528;45.712;9.192;2023-04-21T09:24:46;14.20;99.90
28460;DHT22;32528;45.712;9.192;2023-04-21T09:26:51;14.20;99.90
28460;DHT22;32528;45.712;9.192;2023-04-21T09:28:52;14.10;99.90
28460;DHT22;32528;45.712;9.192;2023-04-21T09:30:54;14.10;99.90
28460;DHT22;32528;45.712;9.192;2023-04-21T09:32:57;14.10;99.90
28460;DHT22;32528;45.712;9.192;2023-04-21T09:35:01;14.20;99.90
28460;DHT22;32528;45.712;9.192;2023-04-21T09:37:03;14.20;99.90
28460;DHT22;32528;45.712;9.192;2023-04-21T09:39:05;14.20;99.90
28460;DHT22;32528;45.712;9.192;2023-04-21T09:41:07;14.20;99.90
28460;DHT22;32528;45.712;9.192;2023-04-21T09:43:08;14.20;99.90
28460;DHT22;32528;45.712;9.192;2023-04-21T09:45:09;14.20;99.90
28460;DHT22;32528;45.712;9.192;2023-04-21T09:47:10;14.30;99.90
28460;DHT22;32528;45.712;9.192;2023-04-21T09:49:20;14.30;99.90
28460;DHT22;32528;45.712;9.192;2023-04-21T09:51:23;14.20;99.90
28460;DHT22;32528;45.712;9.192;2023-04-21T09:53:26;14.30;99.90
28460;DHT22;32528;45.712;9.192;2023-04-21T09:55:28;14.30;99.90
28460;DHT22;32528;45.712;9.192;2023-04-21T09:57:30;14.30;99.90
28460;DHT22;32528;45.712;9.192;2023-04-21T09:59:35;14.40;99.90
28460;DHT22;32528;45.712;9.192;2023-04-21T10:01:36;14.60;99.90
28460;DHT22;32528;45.712;9.192;2023-04-21T10:03:38;14.60;99.90
28460;DHT22;32528;45.712;9.192;2023-04-21T10:05:42;14.70;99.90
28460;DHT22;32528;45.712;9.192;2023-04-21T10:07:44;14.80;99.90
28460;DHT22;32528;45.712;9.192;2023-04-21T10:09:55;14.80;99.90
28460;DHT22;32528;45.712;9.192;2023-04-21T10:11:58;15.00;99.90
28460;DHT22;32528;45.712;9.192;2023-04-21T10:14:01;15.10;99.90
28460;DHT22;32528;45.712;9.192;2023-04-21T10:16:07;15.30;99.90
28460;DHT22;32528;45.712;9.192;2023-04-21T10:20:17;15.80;99.90
28460;DHT22;32528;45.712;9.192;2023-04-21T10:22:34;15.80;99.90
28460;DHT22;32528;45.712;9.192;2023-04-21T10:24:40;16.00;99.90
28460;DHT22;32528;45.712;9.192;2023-04-21T10:26:41;16.10;99.90
28460;DHT22;32528;45.712;9.192;2023-04-21T10:28:42;16.30;99.90
28460;DHT22;32528;45.712;9.192;2023-04-21T10:30:43;16.50;99.90
28460;DHT22;32528;45.712;9.192;2023-04-21T10:32:44;16.60;99.90
28460;DHT22;32528;45.712;9.192;2023-04-21T10:34:45;16.70;99.90
28460;DHT22;32528;45.712;9.192;2023-04-21T10:39:03;16.90;99.90
28460;DHT22;32528;45.712;9.192;2023-04-21T10:41:25;16.90;99.90
28460;DHT22;32528;45.712;9.192;2023-04-21T10:43:43;17.10;99.90
28460;DHT22;32528;45.712;9.192;2023-04-21T10:45:44;17.10;99.90
28460;DHT22;32528;45.712;9.192;2023-04-21T10:47:48;17.00;99.90
28460;DHT22;32528;45.712;9.192;2023-04-21T10:49:50;17.20;99.90
28460;DHT22;32528;45.712;9.192;2023-04-21T10:54:04;17.50;99.90
28460;DHT22;32528;45.712;9.192;2023-04-21T10:56:05;17.40;99.90
28460;DHT22;32528;45.712;9.192;2023-04-21T10:58:08;17.50;99.90
28460;DHT22;32528;45.712;9.192;2023-04-21T11:00:09;17.60;99.90
28460;DHT22;32528;45.712;9.192;2023-04-21T11:02:12;17.90;99.90
28460;DHT22;32528;45.712;9.192;2023-04-21T11:04:17;18.00;99.90
28460;DHT22;32528;45.712;9.192;2023-04-21T11:06:18;18.00;99.90
28460;DHT22;32528;45.712;9.192;2023-04-21T11:08:19;17.70;99.90
28460;DHT22;32528;45.712;9.192;2023-04-21T11:10:20;17.60;99.90
28460;DHT22;32528;45.712;9.192;2023-04-21T11:12:20;17.70;99.90
28460;DHT22;32528;45.712;9.192;2023-04-21T11:14:21;17.60;99.90
28460;DHT22;32528;45.712;9.192;2023-04-21T11:16:22;17.60;99.90
28460;DHT22;32528;45.712;9.192;2023-04-21T11:18:36;17.60;99.90
28460;DHT22;32528;45.712;9.192;2023-04-21T11:20:40;17.60;99.60
28460;DHT22;32528;45.712;9.192;2023-04-21T11:22:41;17.80;99.80
28460;DHT22;32528;45.712;9.192;2023-04-21T11:24:43;18.00;98.70
28460;DHT22;32528;45.712;9.192;2023-04-21T11:26:43;18.10;98.80
28460;DHT22;32528;45.712;9.192;2023-04-21T11:28:48;18.60;99.90
28460;DHT22;32528;45.712;9.192;2023-04-21T11:30:49;19.00;98.30
28460;DHT22;32528;45.712;9.192;2023-04-21T11:32:53;19.10;96.30
28460;DHT22;32528;45.712;9.192;2023-04-21T11:34:55;19.20;97.20
28460;DHT22;32528;45.712;9.192;2023-04-21T11:36:55;19.20;95.70
28460;DHT22;32528;45.712;9.192;2023-04-21T11:38:56;19.10;95.40
28460;DHT22;32528;45.712;9.192;2023-04-21T11:40:57;19.30;96.50
28460;DHT22;32528;45.712;9.192;2023-04-21T11:42:57;19.30;94.70
28460;DHT22;32528;45.712;9.192;2023-04-21T11:44:58;19.30;96.40
28460;DHT22;32528;45.712;9.192;2023-04-21T11:46:59;19.30;94.70
28460;DHT22;32528;45.712;9.192;2023-04-21T11:49:11;19.40;95.00
28460;DHT22;32528;45.712;9.192;2023-04-21T11:51:16;19.50;93.70
28460;DHT22;32528;45.712;9.192;2023-04-21T11:53:17;19.20;94.40
28460;DHT22;32528;45.712;9.192;2023-04-21T11:55:18;19.00;94.70
28460;DHT22;32528;45.712;9.192;2023-04-21T11:57:19;18.90;94.40
28460;DHT22;32528;45.712;9.192;2023-04-21T11:59:21;18.70;94.00
28460;DHT22;32528;45.712;9.192;2023-04-21T12:01:25;18.70;95.50
28460;DHT22;32528;45.712;9.192;2023-04-21T12:03:26;18.60;95.40
28460;DHT22;32528;45.712;9.192;2023-04-21T12:05:34;18.50;95.20
28460;DHT22;32528;45.712;9.192;2023-04-21T12:07:37;18.50;96.00
28460;DHT22;32528;45.712;9.192;2023-04-21T12:09:38;18.40;95.10
28460;DHT22;32528;45.712;9.192;2023-04-21T12:11:39;18.60;94.60
28460;DHT22;32528;45.712;9.192;2023-04-21T12:13:39;18.90;94.70
28460;DHT22;32528;45.712;9.192;2023-04-21T12:15:42;19.20;94.30
28460;DHT22;32528;45.712;9.192;2023-04-21T12:17:43;19.20;93.20
28460;DHT22;32528;45.712;9.192;2023-04-21T12:19:44;18.90;92.90
28460;DHT22;32528;45.712;9.192;2023-04-21T12:21:45;18.80;94.40
28460;DHT22;32528;45.712;9.192;2023-04-21T12:23:45;18.70;94.00
28460;DHT22;32528;45.712;9.192;2023-04-21T12:25:46;18.50;95.60
28460;DHT22;32528;45.712;9.192;2023-04-21T12:27:56;18.50;95.30
28460;DHT22;32528;45.712;9.192;2023-04-21T12:29:57;18.70;95.60
28460;DHT22;32528;45.712;9.192;2023-04-21T12:31:58;19.00;95.30
28460;DHT22;32528;45.712;9.192;2023-04-21T12:33:58;19.30;94.90
28460;DHT22;32528;45.712;9.192;2023-04-21T12:35:59;19.60;92.40
28460;DHT22;32528;45.712;9.192;2023-04-21T12:38:00;19.80;92.50
28460;DHT22;32528;45.712;9.192;2023-04-21T12:40:00;20.10;92.70
28460;DHT22;32528;45.712;9.192;2023-04-21T12:42:01;20.30;92.40
28460;DHT22;32528;45.712;9.192;2023-04-21T12:44:02;20.40;91.60
28460;DHT22;32528;45.712;9.192;2023-04-21T12:46:03;20.30;91.90
28460;DHT22;32528;45.712;9.192;2023-04-21T12:48:04;20.30;92.70
28460;DHT22;32528;45.712;9.192;2023-04-21T12:50:06;20.20;91.30
28460;DHT22;32528;45.712;9.192;2023-04-21T12:52:07;20.40;90.70
28460;DHT22;32528;45.712;9.192;2023-04-21T12:54:08;20.40;91.70
28460;DHT22;32528;45.712;9.192;2023-04-21T12:56:09;20.30;90.20